createdAt,value
2022-11-05T00:01:46.024Z,13.18
2022-11-05T00:04:32.200Z,12.70
2022-11-05T00:07:19.323Z,12.17
2022-11-05T00:09:46.724Z,12.64
2022-11-05T00:12:32.636Z,13.04
2022-11-05T00:15:22.922Z,12.61
2022-11-05T00:17:50.044Z,13.24
2022-11-05T00:20:17.432Z,12.97
2022-11-05T00:23:03.142Z,12.51
2022-11-05T00:25:31.112Z,12.44
2022-11-05T00:28:00.473Z,12.62
2022-11-05T00:30:28.396Z,12.96
2022-11-05T00:32:59.784Z,12.46
2022-11-05T00:35:26.913Z,11.45
2022-11-05T00:37:54.099Z,11.88
2022-11-05T00:40:21.494Z,12.02
2022-11-05T00:43:06.986Z,12.30
2022-11-05T00:45:34.399Z,12.58
2022-11-05T00:48:20.084Z,13.01
2022-11-05T00:50:47.495Z,13.15
2022-11-05T00:53:14.815Z,12.93
2022-11-05T00:55:42.740Z,12.41
2022-11-05T00:58:12.974Z,12.32
2022-11-05T01:00:40.934Z,12.35
2022-11-05T01:03:09.580Z,11.91
2022-11-05T01:05:41.239Z,11.99
2022-11-05T01:08:09.799Z,12.16
2022-11-05T01:10:40.780Z,12.35
2022-11-05T01:13:12.666Z,12.18
2022-11-05T01:15:40.790Z,11.49
2022-11-05T01:18:07.900Z,11.89
2022-11-05T01:20:35.016Z,11.18
2022-11-05T01:23:02.421Z,11.60
2022-11-05T01:25:29.547Z,11.04
2022-11-05T01:27:56.686Z,11.03
2022-11-05T01:30:24.178Z,10.97
2022-11-05T01:32:51.306Z,11.26
2022-11-05T01:35:18.670Z,10.95
2022-11-05T01:37:46.066Z,11.82
2022-11-05T01:40:14.520Z,11.75
2022-11-05T01:42:41.636Z,11.08
2022-11-05T01:45:18.047Z,11.12
2022-11-05T01:48:03.881Z,11.38
2022-11-05T01:50:31.374Z,11.75
2022-11-05T01:53:03.681Z,12.46
2022-11-05T01:55:31.837Z,12.63
2022-11-05T01:57:58.983Z,11.78
2022-11-05T02:00:26.245Z,11.78
2022-11-05T02:02:53.773Z,12.45
2022-11-05T02:05:21.353Z,12.11
2022-11-05T02:07:48.480Z,11.99
2022-11-05T02:10:15.695Z,10.68
2022-11-05T02:12:43.893Z,11.57
2022-11-05T02:15:16.114Z,11.33
2022-11-05T02:18:02.675Z,11.20
2022-11-05T02:20:29.767Z,10.29
2022-11-05T02:22:57.113Z,10.82
2022-11-05T02:25:36.466Z,10.72
2022-11-05T02:28:42.394Z,10.34
2022-11-05T02:31:23.767Z,10.77
2022-11-05T02:33:57.032Z,10.60
2022-11-05T02:36:30.176Z,10.78
2022-11-05T02:39:27.109Z,10.75
2022-11-05T02:42:01.944Z,10.55
2022-11-05T02:44:34.773Z,10.33
2022-11-05T02:47:06.068Z,10.34
2022-11-05T02:49:38.398Z,11.39
2022-11-05T02:52:06.899Z,10.01
2022-11-05T02:54:34.317Z,10.57
2022-11-05T02:57:05.504Z,10.99
2022-11-05T02:59:32.766Z,10.61
2022-11-05T03:02:00.380Z,10.57
2022-11-05T03:04:27.611Z,10.91
2022-11-05T03:06:57.822Z,11.00
2022-11-05T03:09:32.107Z,9.99
2022-11-05T03:12:03.323Z,10.69
2022-11-05T03:14:30.651Z,10.11
2022-11-05T03:17:05.160Z,9.94
2022-11-05T03:19:49.429Z,10.58
2022-11-05T03:22:26.700Z,11.35
2022-11-05T03:25:13.013Z,10.17
2022-11-05T03:27:41.237Z,10.81
2022-11-05T03:30:09.537Z,10.89
2022-11-05T03:32:37.844Z,11.83
2022-11-05T03:35:13.024Z,12.29
2022-11-05T03:37:40.918Z,10.61
2022-11-05T03:40:08.540Z,10.26
2022-11-05T03:42:36.021Z,10.43
2022-11-05T03:45:06.462Z,10.05
2022-11-05T03:47:34.524Z,11.04
2022-11-05T03:50:08.397Z,10.32
2022-11-05T03:52:37.176Z,10.55
2022-11-05T03:55:04.454Z,11.18
2022-11-05T03:57:32.709Z,10.24
2022-11-05T04:00:00.120Z,10.33
2022-11-05T04:02:27.424Z,10.49
2022-11-05T04:04:54.938Z,11.22
2022-11-05T04:07:40.664Z,10.34
2022-11-05T04:10:27.907Z,10.71
2022-11-05T04:13:14.096Z,10.60
2022-11-05T04:15:59.977Z,11.26
2022-11-05T04:18:27.127Z,10.56
2022-11-05T04:21:13.402Z,11.26
2022-11-05T04:23:59.298Z,10.95
2022-11-05T04:26:26.686Z,10.86
2022-11-05T04:29:12.503Z,11.30
2022-11-05T04:31:39.880Z,12.20
2022-11-05T04:34:07.002Z,10.87
2022-11-05T04:36:34.093Z,10.82
2022-11-05T04:39:01.480Z,10.86
2022-11-05T04:41:28.601Z,10.55
2022-11-05T04:43:55.713Z,11.48
2022-11-05T04:46:23.101Z,12.00
2022-11-05T04:48:50.214Z,10.95
2022-11-05T04:51:17.427Z,10.34
2022-11-05T04:53:44.813Z,11.29
2022-11-05T04:56:12.881Z,11.25
2022-11-05T04:58:40.743Z,10.79
2022-11-05T05:01:18.487Z,10.18
2022-11-05T05:03:48.867Z,10.50
2022-11-05T05:06:16.584Z,10.42
2022-11-05T05:08:43.707Z,11.22
2022-11-05T05:11:11.581Z,11.11
2022-11-05T05:13:38.979Z,10.74
2022-11-05T05:16:07.253Z,10.66
2022-11-05T05:18:34.660Z,10.77
2022-11-05T05:21:21.140Z,10.62
2022-11-05T05:23:48.431Z,10.65
2022-11-05T05:26:16.202Z,11.03
2022-11-05T05:28:43.374Z,11.40
2022-11-05T05:31:10.580Z,11.72
2022-11-05T05:33:37.970Z,10.93
2022-11-05T05:36:10.930Z,11.32
2022-11-05T05:38:38.918Z,10.66
2022-11-05T05:41:06.069Z,10.97
2022-11-05T05:43:33.718Z,10.37
2022-11-05T05:46:01.868Z,10.32
2022-11-05T05:48:29.000Z,10.91
2022-11-05T05:50:59.774Z,11.18
2022-11-05T05:53:27.161Z,10.87
2022-11-05T05:55:54.899Z,10.81
2022-11-05T05:58:22.376Z,10.89
2022-11-05T06:00:49.797Z,10.74
2022-11-05T06:03:17.207Z,10.25
2022-11-05T06:05:44.343Z,11.22
2022-11-05T06:08:11.468Z,11.05
2022-11-05T06:10:38.875Z,10.19
2022-11-05T06:13:06.051Z,11.11
2022-11-05T06:15:35.907Z,11.73
2022-11-05T06:18:03.607Z,10.93
2022-11-05T06:20:30.722Z,11.57
2022-11-05T06:22:57.933Z,10.75
2022-11-05T06:25:25.407Z,10.62
2022-11-05T06:27:53.126Z,10.82
2022-11-05T06:30:21.731Z,10.64
2022-11-05T06:32:49.144Z,11.00
2022-11-05T06:35:16.247Z,11.89
2022-11-05T06:37:43.346Z,11.57
2022-11-05T06:40:10.850Z,12.70
2022-11-05T06:42:37.957Z,11.58
2022-11-05T06:45:05.336Z,11.83
2022-11-05T06:47:32.619Z,11.40
2022-11-05T06:49:59.720Z,11.21
2022-11-05T06:52:27.361Z,12.00
2022-11-05T06:54:54.756Z,11.22
2022-11-05T06:57:21.874Z,10.58
2022-11-05T06:59:49.005Z,10.70
2022-11-05T07:02:17.997Z,11.30
2022-11-05T07:04:45.228Z,11.39
2022-11-05T07:07:12.360Z,11.58
2022-11-05T07:09:43.026Z,11.38
2022-11-05T07:12:10.322Z,11.91
2022-11-05T07:14:37.472Z,11.88
2022-11-05T07:17:04.848Z,10.82
2022-11-05T07:19:31.969Z,11.59
2022-11-05T07:21:59.092Z,12.33
2022-11-05T07:24:26.495Z,11.36
2022-11-05T07:26:53.617Z,11.68
2022-11-05T07:29:20.821Z,11.05
2022-11-05T07:31:48.644Z,10.90
2022-11-05T07:34:15.803Z,11.31
2022-11-05T07:36:42.947Z,11.25
2022-11-05T07:39:10.405Z,10.86
2022-11-05T07:41:37.540Z,12.11
2022-11-05T07:44:04.672Z,12.02
2022-11-05T07:46:32.266Z,12.01
2022-11-05T07:48:59.402Z,12.12
2022-11-05T07:51:26.546Z,12.76
2022-11-05T07:53:54.005Z,11.97
2022-11-05T07:56:21.196Z,12.25
2022-11-05T07:58:48.329Z,12.42
2022-11-05T08:01:15.829Z,12.56
2022-11-05T08:03:43.419Z,12.82
2022-11-05T08:06:10.583Z,12.32
2022-11-05T08:08:37.705Z,12.06
2022-11-05T08:11:05.668Z,12.77
2022-11-05T08:13:33.187Z,11.96
2022-11-05T08:16:01.769Z,12.36
2022-11-05T08:18:32.129Z,12.28
2022-11-05T08:20:59.756Z,12.76
2022-11-05T08:23:27.516Z,12.24
2022-11-05T08:25:55.148Z,12.66
2022-11-05T08:28:22.314Z,12.18
2022-11-05T08:30:50.169Z,12.45
2022-11-05T08:33:17.557Z,12.70
2022-11-05T08:35:44.726Z,12.59
2022-11-05T08:38:15.554Z,12.85
2022-11-05T08:40:43.600Z,11.64
2022-11-05T08:43:11.220Z,12.79
2022-11-05T08:45:38.703Z,12.62
2022-11-05T08:48:07.225Z,12.03
2022-11-05T08:50:34.567Z,12.31
2022-11-05T08:53:01.769Z,12.46
2022-11-05T08:55:30.206Z,12.31
2022-11-05T08:57:58.125Z,12.43
2022-11-05T09:00:25.469Z,12.74
2022-11-05T09:02:52.933Z,11.85
2022-11-05T09:05:20.193Z,12.41
2022-11-05T09:07:47.303Z,12.26
2022-11-05T09:10:14.844Z,12.12
2022-11-05T09:12:42.013Z,12.72
2022-11-05T09:15:09.291Z,13.31
2022-11-05T09:17:36.648Z,12.24
2022-11-05T09:20:04.451Z,13.06
2022-11-05T09:22:31.561Z,13.69
2022-11-05T09:24:59.028Z,12.74
2022-11-05T09:27:26.586Z,13.08
2022-11-05T09:29:53.714Z,13.04
2022-11-05T09:32:21.988Z,12.62
2022-11-05T09:34:50.096Z,12.92
2022-11-05T09:37:17.198Z,12.71
2022-11-05T09:39:44.608Z,13.43
2022-11-05T09:42:12.152Z,13.14
2022-11-05T09:45:11.861Z,12.97
2022-11-05T09:47:40.724Z,12.58
2022-11-05T09:50:09.169Z,13.42
2022-11-05T09:52:36.343Z,13.24
2022-11-05T09:55:04.356Z,13.21
2022-11-05T09:57:42.008Z,12.41
2022-11-05T10:00:16.476Z,12.51
2022-11-05T10:02:49.984Z,12.84
2022-11-05T10:05:18.502Z,13.87
2022-11-05T10:07:55.994Z,13.55
2022-11-05T10:10:29.001Z,13.23
2022-11-05T10:12:57.373Z,13.27
2022-11-05T10:15:34.901Z,13.37
2022-11-05T10:18:03.633Z,13.02
2022-11-05T10:20:34.018Z,12.98
2022-11-05T10:23:12.767Z,13.41
2022-11-05T10:25:41.544Z,13.01
2022-11-05T10:28:10.057Z,12.57
2022-11-05T10:30:37.153Z,13.24
2022-11-05T10:33:05.171Z,13.34
2022-11-05T10:35:33.302Z,12.98
2022-11-05T10:38:00.429Z,12.99
2022-11-05T10:40:27.725Z,13.00
2022-11-05T10:43:05.604Z,12.85
2022-11-05T10:45:42.781Z,12.21
2022-11-05T10:48:24.588Z,12.67
2022-11-05T10:50:51.727Z,13.61
2022-11-05T10:53:39.297Z,13.31
2022-11-05T10:56:26.704Z,13.71
2022-11-05T10:58:56.521Z,13.71
2022-11-05T11:01:24.838Z,14.30
2022-11-05T11:04:03.726Z,13.64
2022-11-05T11:06:32.134Z,13.79
2022-11-05T11:09:01.093Z,14.23
2022-11-05T11:11:28.543Z,13.77
2022-11-05T11:14:02.316Z,13.34
2022-11-05T11:16:32.157Z,12.94
2022-11-05T11:19:03.319Z,13.27
2022-11-05T11:21:31.240Z,13.35
2022-11-05T11:24:06.965Z,13.68
2022-11-05T11:26:37.716Z,13.63
2022-11-05T11:29:04.757Z,13.52
2022-11-05T11:31:32.091Z,14.59
2022-11-05T11:34:03.591Z,13.60
2022-11-05T11:36:35.232Z,13.68
2022-11-05T11:39:04.463Z,13.68
2022-11-05T11:41:33.423Z,13.68
2022-11-05T11:44:03.154Z,13.66
2022-11-05T11:46:31.641Z,13.23
2022-11-05T11:48:58.758Z,13.28
2022-11-05T11:51:25.809Z,13.66
2022-11-05T11:53:55.886Z,14.17
2022-11-05T11:56:23.294Z,13.97
2022-11-05T11:58:52.381Z,13.77
2022-11-05T12:01:38.812Z,13.74
2022-11-05T12:04:21.276Z,13.82
2022-11-05T12:06:48.330Z,14.49
2022-11-05T12:09:25.191Z,14.30
2022-11-05T12:11:52.376Z,14.58
2022-11-05T12:14:43.660Z,14.65
2022-11-05T12:17:22.450Z,14.48
2022-11-05T12:20:05.257Z,14.12
2022-11-05T12:22:36.751Z,14.28
2022-11-05T12:25:30.269Z,14.52
2022-11-05T12:28:12.760Z,14.28
2022-11-05T12:30:43.083Z,15.04
2022-11-05T12:33:15.218Z,14.22
2022-11-05T12:35:56.458Z,14.44
2022-11-05T12:38:45.310Z,14.39
2022-11-05T12:41:12.704Z,14.71
2022-11-05T12:43:56.909Z,14.26
2022-11-05T12:46:27.308Z,15.00
2022-11-05T12:49:00.349Z,15.03
2022-11-05T12:51:30.858Z,15.17
2022-11-05T12:54:00.971Z,15.74
2022-11-05T12:56:40.653Z,15.76
2022-11-05T12:59:19.230Z,14.91
2022-11-05T13:01:49.235Z,16.14
2022-11-05T13:04:35.363Z,16.62
2022-11-05T13:07:03.631Z,16.14
2022-11-05T13:09:33.966Z,15.01
2022-11-05T13:12:04.554Z,15.65
2022-11-05T13:14:40.757Z,14.28
2022-11-05T13:17:12.778Z,14.81
2022-11-05T13:19:43.582Z,14.75
2022-11-05T13:22:16.487Z,15.16
2022-11-05T13:24:47.803Z,15.40
2022-11-05T13:27:34.292Z,15.57
2022-11-05T13:30:06.019Z,15.15
2022-11-05T13:32:35.328Z,14.69
2022-11-05T13:35:04.130Z,14.86
2022-11-05T13:37:50.351Z,15.18
2022-11-05T13:40:19.232Z,15.45
2022-11-05T13:42:52.951Z,14.97
2022-11-05T13:45:23.116Z,14.86
2022-11-05T13:48:10.429Z,14.50
2022-11-05T13:50:56.897Z,14.46
2022-11-05T13:53:24.083Z,14.20
2022-11-05T13:55:54.246Z,14.66
2022-11-05T13:58:50.525Z,14.49
2022-11-05T14:01:36.300Z,15.09
2022-11-05T14:04:03.883Z,13.97
2022-11-05T14:06:35.139Z,14.11
2022-11-05T14:09:03.755Z,14.32
2022-11-05T14:11:50.339Z,14.71
2022-11-05T14:14:22.024Z,14.38
2022-11-05T14:16:54.337Z,14.99
2022-11-05T14:19:29.645Z,14.60
2022-11-05T14:21:59.073Z,14.49
2022-11-05T14:24:45.736Z,13.62
2022-11-05T14:27:13.166Z,14.30
2022-11-05T14:29:44.444Z,13.76
2022-11-05T14:32:17.520Z,14.38
2022-11-05T14:34:54.135Z,13.69
2022-11-05T14:37:23.124Z,14.49
2022-11-05T14:39:50.920Z,14.44
2022-11-05T14:42:31.950Z,13.84
2022-11-05T14:45:19.138Z,14.86
2022-11-05T14:47:53.927Z,13.91
2022-11-05T14:50:24.131Z,14.01
2022-11-05T14:52:52.774Z,14.10
2022-11-05T14:55:25.476Z,14.76
2022-11-05T14:57:53.122Z,14.32
2022-11-05T15:00:29.757Z,13.50
2022-11-05T15:03:05.587Z,13.71
2022-11-05T15:05:48.249Z,13.84
2022-11-05T15:08:27.850Z,14.22
2022-11-05T15:10:56.893Z,14.20
2022-11-05T15:13:34.779Z,13.94
2022-11-05T15:16:03.754Z,13.69
2022-11-05T15:18:36.934Z,14.63
2022-11-05T15:21:04.921Z,14.10
2022-11-05T15:23:36.654Z,14.10
2022-11-05T15:26:22.896Z,14.42
2022-11-05T15:28:51.158Z,14.21
2022-11-05T15:31:24.947Z,14.27
2022-11-05T15:33:57.510Z,14.58
2022-11-05T15:36:29.257Z,14.24
2022-11-05T15:39:27.373Z,13.62
2022-11-05T15:41:44.543Z,14.07
2022-11-05T15:44:25.811Z,14.17
2022-11-05T15:47:14.198Z,13.73
2022-11-05T15:49:42.530Z,13.73
2022-11-05T15:52:13.565Z,14.06
2022-11-05T15:54:41.191Z,13.53
2022-11-05T15:57:20.232Z,13.54
2022-11-05T15:59:47.363Z,13.66
2022-11-05T16:02:20.877Z,13.49
2022-11-05T16:04:49.142Z,13.47
2022-11-05T16:07:16.897Z,13.83
2022-11-05T16:09:51.159Z,13.84
2022-11-05T16:12:18.635Z,13.82
2022-11-05T16:15:18.085Z,14.59
2022-11-05T16:17:50.908Z,14.03
2022-11-05T16:20:18.203Z,13.99
2022-11-05T16:22:46.489Z,14.10
2022-11-05T16:25:22.813Z,14.43
2022-11-05T16:27:50.280Z,13.79
2022-11-05T16:30:18.313Z,13.50
2022-11-05T16:32:46.407Z,14.08
2022-11-05T16:35:16.683Z,14.02
2022-11-05T16:37:49.176Z,14.17
2022-11-05T16:40:21.174Z,14.55
2022-11-05T16:42:51.743Z,13.98
2022-11-05T16:45:21.169Z,14.42
2022-11-05T16:47:48.535Z,14.44
2022-11-05T16:50:24.522Z,14.54
2022-11-05T16:52:52.535Z,14.41
2022-11-05T16:55:20.133Z,14.36
2022-11-05T16:57:49.165Z,14.17
2022-11-05T17:00:17.579Z,14.35
2022-11-05T17:02:46.048Z,14.55
2022-11-05T17:05:16.649Z,13.86
2022-11-05T17:07:44.630Z,13.83
2022-11-05T17:10:12.248Z,14.20
2022-11-05T17:12:39.846Z,14.10
2022-11-05T17:15:35.823Z,14.02
2022-11-05T17:18:04.187Z,14.45
2022-11-05T17:20:38.544Z,14.85
2022-11-05T17:23:08.450Z,13.76
2022-11-05T17:25:39.305Z,14.38
2022-11-05T17:28:07.860Z,13.94
2022-11-05T17:30:35.450Z,14.05
2022-11-05T17:33:06.543Z,14.05
2022-11-05T17:35:34.432Z,14.27
2022-11-05T17:38:02.103Z,14.30
2022-11-05T17:40:30.761Z,14.01
2022-11-05T17:42:58.374Z,14.88
2022-11-05T17:45:25.849Z,15.45
2022-11-05T17:47:53.801Z,13.94
2022-11-05T17:50:21.573Z,13.85
2022-11-05T17:52:49.081Z,13.52
2022-11-05T17:55:17.608Z,12.89
2022-11-05T17:57:48.970Z,13.19
2022-11-05T18:00:17.484Z,14.54
2022-11-05T18:02:46.881Z,13.97
2022-11-05T18:05:14.665Z,13.61
2022-11-05T18:07:42.503Z,13.26
2022-11-05T18:10:11.301Z,13.96
2022-11-05T18:12:39.050Z,13.84
2022-11-05T18:15:07.241Z,13.46
2022-11-05T18:17:36.347Z,13.53
2022-11-05T18:20:06.157Z,13.88
2022-11-05T18:22:34.255Z,13.37
2022-11-05T18:25:02.210Z,13.31
2022-11-05T18:27:29.553Z,13.42
2022-11-05T18:29:57.574Z,13.42
2022-11-05T18:32:25.485Z,14.05
2022-11-05T18:34:53.115Z,14.49
2022-11-05T18:37:21.556Z,14.41
2022-11-05T18:39:51.004Z,13.10
2022-11-05T18:42:20.468Z,13.54
2022-11-05T18:44:48.410Z,13.98
2022-11-05T18:47:16.834Z,14.53
2022-11-05T18:49:44.709Z,14.66
2022-11-05T18:52:14.943Z,14.19
2022-11-05T18:54:43.610Z,14.44
2022-11-05T18:57:10.821Z,14.14
2022-11-05T18:59:39.667Z,14.30
2022-11-05T19:02:14.427Z,13.95
2022-11-05T19:05:00.389Z,13.57
2022-11-05T19:07:32.833Z,14.60
2022-11-05T19:10:00.340Z,14.04
2022-11-05T19:12:27.733Z,14.71
2022-11-05T19:15:02.818Z,14.76
2022-11-05T19:17:32.309Z,14.61
2022-11-05T19:20:00.408Z,14.31
2022-11-05T19:22:31.240Z,14.25
2022-11-05T19:24:58.998Z,14.71
2022-11-05T19:27:27.012Z,14.25
2022-11-05T19:29:55.324Z,14.25
2022-11-05T19:32:23.486Z,14.60
2022-11-05T19:34:53.572Z,13.73
2022-11-05T19:37:21.633Z,14.08
2022-11-05T19:39:49.406Z,13.41
2022-11-05T19:42:17.959Z,13.46
2022-11-05T19:44:46.721Z,14.01
2022-11-05T19:47:14.474Z,14.19
2022-11-05T19:49:42.832Z,14.18
2022-11-05T19:52:10.482Z,13.48
2022-11-05T19:54:38.257Z,13.70
2022-11-05T19:57:06.920Z,14.56
2022-11-05T19:59:34.689Z,14.03
2022-11-05T20:02:02.162Z,13.63
2022-11-05T20:04:30.172Z,13.63
2022-11-05T20:06:58.043Z,13.74
2022-11-05T20:09:25.882Z,14.05
2022-11-05T20:11:55.048Z,14.08
2022-11-05T20:14:23.228Z,14.09
2022-11-05T20:16:51.223Z,14.22
2022-11-05T20:19:21.942Z,13.65
2022-11-05T20:21:49.689Z,13.36
2022-11-05T20:24:23.765Z,13.21
2022-11-05T20:26:53.386Z,13.62
2022-11-05T20:29:21.853Z,13.90
2022-11-05T20:31:49.552Z,13.96
2022-11-05T20:34:18.228Z,13.79
2022-11-05T20:36:45.605Z,13.34
2022-11-05T20:39:13.266Z,13.65
2022-11-05T20:41:41.252Z,13.44
2022-11-05T20:44:08.941Z,13.38
2022-11-05T20:46:36.285Z,13.85
2022-11-05T20:49:04.210Z,13.47
2022-11-05T20:51:31.551Z,13.29
2022-11-05T20:53:59.897Z,13.25
2022-11-05T20:56:29.843Z,13.60
2022-11-05T20:58:59.687Z,14.33
2022-11-05T21:01:31.118Z,14.22
2022-11-05T21:03:59.920Z,13.12
2022-11-05T21:06:28.472Z,13.66
2022-11-05T21:08:55.724Z,13.98
2022-11-05T21:11:23.378Z,13.56
2022-11-05T21:13:50.944Z,13.14
2022-11-05T21:16:19.263Z,13.18
2022-11-05T21:18:47.573Z,14.93
2022-11-05T21:21:17.684Z,14.11
2022-11-05T21:23:45.220Z,14.03
2022-11-05T21:26:13.573Z,14.30
2022-11-05T21:28:41.431Z,14.07
2022-11-05T21:31:09.859Z,13.97
2022-11-05T21:33:37.608Z,13.51
2022-11-05T21:36:05.951Z,14.65
2022-11-05T21:38:33.346Z,14.60
2022-11-05T21:41:02.064Z,13.97
2022-11-05T21:43:29.330Z,14.25
2022-11-05T21:46:00.257Z,13.33
2022-11-05T21:48:28.085Z,13.67
2022-11-05T21:51:14.332Z,14.58
2022-11-05T21:54:00.829Z,13.75
2022-11-05T21:56:46.529Z,14.49
2022-11-05T21:59:33.911Z,13.75
2022-11-05T22:02:04.269Z,13.28
2022-11-05T22:04:32.943Z,13.99
2022-11-05T22:07:00.193Z,13.71
2022-11-05T22:09:27.470Z,13.60
2022-11-05T22:11:55.000Z,13.38
2022-11-05T22:14:22.343Z,13.79
2022-11-05T22:16:49.510Z,14.20
2022-11-05T22:19:17.338Z,13.59
2022-11-05T22:21:45.404Z,13.86
2022-11-05T22:24:12.524Z,14.07
2022-11-05T22:26:39.922Z,13.36
2022-11-05T22:29:07.146Z,13.65
2022-11-05T22:31:36.822Z,13.66
2022-11-05T22:34:04.893Z,13.76
2022-11-05T22:36:32.646Z,14.90
2022-11-05T22:38:59.749Z,14.65
2022-11-05T22:41:27.257Z,14.16
2022-11-05T22:43:54.594Z,14.09
2022-11-05T22:46:22.534Z,14.03
2022-11-05T22:48:50.137Z,13.99
2022-11-05T22:51:18.567Z,13.20
2022-11-05T22:53:45.694Z,13.84
2022-11-05T22:56:13.808Z,13.37
2022-11-05T22:58:41.144Z,13.72
2022-11-05T23:01:09.300Z,14.27
2022-11-05T23:03:36.756Z,13.63
2022-11-05T23:06:05.281Z,13.70
2022-11-05T23:08:51.214Z,12.88
2022-11-05T23:11:38.728Z,13.99
2022-11-05T23:14:06.654Z,13.90
2022-11-05T23:16:52.858Z,14.22
2022-11-05T23:19:38.813Z,14.55
2022-11-05T23:22:27.944Z,14.74
2022-11-05T23:24:55.061Z,14.92
2022-11-05T23:27:22.446Z,14.58
2022-11-05T23:29:49.622Z,13.71
2022-11-05T23:32:25.829Z,14.48
2022-11-05T23:34:53.837Z,14.40
2022-11-05T23:37:40.715Z,13.89
2022-11-05T23:40:09.487Z,14.58
2022-11-05T23:42:55.169Z,14.87
2022-11-05T23:45:41.279Z,14.98
2022-11-05T23:48:31.671Z,14.16
2022-11-05T23:51:00.292Z,15.22
2022-11-05T23:53:27.559Z,15.03
2022-11-05T23:55:58.389Z,14.97
2022-11-05T23:58:25.788Z,15.04
